sensor_id;sensor_type;location;lat;lon;timestamp;temperature;humidity
58933;DHT22;44716;51.022;6.818;2023-08-24T00:01:53;26.40;51.10
58933;DHT22;44716;51.022;6.818;2023-08-24T00:04:18;26.40;51.10
58933;DHT22;44716;51.022;6.818;2023-08-24T00:06:44;26.40;51.10
58933;DHT22;44716;51.022;6.818;2023-08-24T00:09:09;26.40;51.10
58933;DHT22;44716;51.022;6.818;2023-08-24T00:11:34;26.40;51.10
58933;DHT22;44716;51.022;6.818;2023-08-24T00:14:00;26.40;51.20
58933;DHT22;44716;51.022;6.818;2023-08-24T00:16:26;26.40;51.20
58933;DHT22;44716;51.022;6.818;2023-08-24T00:18:51;26.40;51.10
58933;DHT22;44716;51.022;6.818;2023-08-24T00:21:17;26.40;51.10
58933;DHT22;44716;51.022;6.818;2023-08-24T00:23:43;26.40;51.10
58933;DHT22;44716;51.022;6.818;2023-08-24T00:26:09;26.40;51.10
58933;DHT22;44716;51.022;6.818;2023-08-24T00:28:34;26.40;51.10
58933;DHT22;44716;51.022;6.818;2023-08-24T00:31:00;26.40;51.10
58933;DHT22;44716;51.022;6.818;2023-08-24T00:33:26;26.40;51.10
58933;DHT22;44716;51.022;6.818;2023-08-24T00:35:51;26.40;51.10
58933;DHT22;44716;51.022;6.818;2023-08-24T00:38:17;26.40;51.10
58933;DHT22;44716;51.022;6.818;2023-08-24T00:40:42;26.40;51.90
58933;DHT22;44716;51.022;6.818;2023-08-24T00:43:09;26.40;51.20
58933;DHT22;44716;51.022;6.818;2023-08-24T00:45:34;26.40;51.30
58933;DHT22;44716;51.022;6.818;2023-08-24T00:48:00;26.40;51.20
58933;DHT22;44716;51.022;6.818;2023-08-24T00:50:26;26.40;51.20
58933;DHT22;44716;51.022;6.818;2023-08-24T00:52:53;26.40;51.30
58933;DHT22;44716;51.022;6.818;2023-08-24T00:55:19;26.40;51.30
58933;DHT22;44716;51.022;6.818;2023-08-24T00:57:45;26.30;51.30
58933;DHT22;44716;51.022;6.818;2023-08-24T01:00:11;26.40;51.20
58933;DHT22;44716;51.022;6.818;2023-08-24T01:02:37;26.30;51.10
58933;DHT22;44716;51.022;6.818;2023-08-24T01:05:03;26.30;51.10
58933;DHT22;44716;51.022;6.818;2023-08-24T01:07:35;26.30;51.10
58933;DHT22;44716;51.022;6.818;2023-08-24T01:10:02;26.30;51.10
58933;DHT22;44716;51.022;6.818;2023-08-24T01:15:12;26.30;51.10
58933;DHT22;44716;51.022;6.818;2023-08-24T01:17:38;26.30;51.10
58933;DHT22;44716;51.022;6.818;2023-08-24T01:20:04;26.40;51.20
58933;DHT22;44716;51.022;6.818;2023-08-24T01:22:40;26.30;51.10
58933;DHT22;44716;51.022;6.818;2023-08-24T01:27:38;26.40;51.10
58933;DHT22;44716;51.022;6.818;2023-08-24T01:30:05;26.40;51.10
58933;DHT22;44716;51.022;6.818;2023-08-24T01:32:32;26.30;51.10
58933;DHT22;44716;51.022;6.818;2023-08-24T01:34:58;26.30;51.10
58933;DHT22;44716;51.022;6.818;2023-08-24T01:37:24;26.30;51.10
58933;DHT22;44716;51.022;6.818;2023-08-24T01:40:06;26.30;51.20
58933;DHT22;44716;51.022;6.818;2023-08-24T01:42:41;26.30;51.30
58933;DHT22;44716;51.022;6.818;2023-08-24T01:45:08;26.30;51.30
58933;DHT22;44716;51.022;6.818;2023-08-24T01:47:35;26.30;51.30
58933;DHT22;44716;51.022;6.818;2023-08-24T01:50:02;26.30;51.20
58933;DHT22;44716;51.022;6.818;2023-08-24T01:52:28;26.30;51.30
58933;DHT22;44716;51.022;6.818;2023-08-24T01:54:53;26.30;51.30
58933;DHT22;44716;51.022;6.818;2023-08-24T01:57:19;26.30;51.40
58933;DHT22;44716;51.022;6.818;2023-08-24T01:59:44;26.30;51.40
58933;DHT22;44716;51.022;6.818;2023-08-24T02:02:10;26.30;51.40
58933;DHT22;44716;51.022;6.818;2023-08-24T02:04:35;26.30;51.30
58933;DHT22;44716;51.022;6.818;2023-08-24T02:07:01;26.30;51.40
58933;DHT22;44716;51.022;6.818;2023-08-24T02:09:26;26.30;51.40
58933;DHT22;44716;51.022;6.818;2023-08-24T02:11:52;26.30;51.40
58933;DHT22;44716;51.022;6.818;2023-08-24T02:14:17;26.30;51.40
58933;DHT22;44716;51.022;6.818;2023-08-24T02:16:43;26.30;51.40
58933;DHT22;44716;51.022;6.818;2023-08-24T02:19:08;26.30;51.50
58933;DHT22;44716;51.022;6.818;2023-08-24T02:21:37;26.30;51.50
58933;DHT22;44716;51.022;6.818;2023-08-24T02:24:04;26.30;51.60
58933;DHT22;44716;51.022;6.818;2023-08-24T02:26:29;26.20;51.60
58933;DHT22;44716;51.022;6.818;2023-08-24T02:28:55;26.20;51.60
58933;DHT22;44716;51.022;6.818;2023-08-24T02:31:20;26.30;51.70
58933;DHT22;44716;51.022;6.818;2023-08-24T02:33:46;26.30;52.40
58933;DHT22;44716;51.022;6.818;2023-08-24T02:36:11;26.20;51.70
58933;DHT22;44716;51.022;6.818;2023-08-24T02:38:37;26.20;51.90
58933;DHT22;44716;51.022;6.818;2023-08-24T02:41:03;26.20;51.80
58933;DHT22;44716;51.022;6.818;2023-08-24T02:43:28;26.20;51.80
58933;DHT22;44716;51.022;6.818;2023-08-24T02:45:58;26.20;51.80
58933;DHT22;44716;51.022;6.818;2023-08-24T02:48:24;26.30;51.90
58933;DHT22;44716;51.022;6.818;2023-08-24T02:50:49;26.30;51.90
58933;DHT22;44716;51.022;6.818;2023-08-24T02:53:15;26.20;51.80
58933;DHT22;44716;51.022;6.818;2023-08-24T02:55:40;26.20;51.90
58933;DHT22;44716;51.022;6.818;2023-08-24T02:58:06;26.20;51.90
58933;DHT22;44716;51.022;6.818;2023-08-24T03:00:31;26.20;51.90
58933;DHT22;44716;51.022;6.818;2023-08-24T03:02:58;26.20;51.90
58933;DHT22;44716;51.022;6.818;2023-08-24T03:05:24;26.20;51.90
58933;DHT22;44716;51.022;6.818;2023-08-24T03:07:49;26.30;51.90
58933;DHT22;44716;51.022;6.818;2023-08-24T03:10:15;26.20;51.80
58933;DHT22;44716;51.022;6.818;2023-08-24T03:12:40;26.30;51.90
58933;DHT22;44716;51.022;6.818;2023-08-24T03:15:06;26.30;52.00
58933;DHT22;44716;51.022;6.818;2023-08-24T03:17:32;26.30;52.00
58933;DHT22;44716;51.022;6.818;2023-08-24T03:19:57;26.20;52.00
58933;DHT22;44716;51.022;6.818;2023-08-24T03:22:23;26.20;52.00
58933;DHT22;44716;51.022;6.818;2023-08-24T03:24:48;26.20;52.10
58933;DHT22;44716;51.022;6.818;2023-08-24T03:27:14;26.20;52.20
58933;DHT22;44716;51.022;6.818;2023-08-24T03:29:39;26.20;52.10
58933;DHT22;44716;51.022;6.818;2023-08-24T03:32:05;26.20;52.20
58933;DHT22;44716;51.022;6.818;2023-08-24T03:34:30;26.20;52.20
58933;DHT22;44716;51.022;6.818;2023-08-24T03:36:56;26.20;52.20
58933;DHT22;44716;51.022;6.818;2023-08-24T03:39:22;26.20;52.20
58933;DHT22;44716;51.022;6.818;2023-08-24T03:41:47;26.20;52.20
58933;DHT22;44716;51.022;6.818;2023-08-24T03:44:13;26.30;52.20
58933;DHT22;44716;51.022;6.818;2023-08-24T03:46:38;26.30;52.20
58933;DHT22;44716;51.022;6.818;2023-08-24T03:49:03;26.30;52.30
58933;DHT22;44716;51.022;6.818;2023-08-24T03:51:29;26.30;52.30
58933;DHT22;44716;51.022;6.818;2023-08-24T03:53:54;26.30;52.30
58933;DHT22;44716;51.022;6.818;2023-08-24T03:56:20;26.30;52.30
58933;DHT22;44716;51.022;6.818;2023-08-24T03:58:45;26.30;52.30
58933;DHT22;44716;51.022;6.818;2023-08-24T04:01:11;26.30;52.40
58933;DHT22;44716;51.022;6.818;2023-08-24T04:03:36;26.30;52.40
58933;DHT22;44716;51.022;6.818;2023-08-24T04:06:02;26.20;53.20
58933;DHT22;44716;51.022;6.818;2023-08-24T04:08:28;26.20;52.60
58933;DHT22;44716;51.022;6.818;2023-08-24T04:10:53;26.20;52.70
58933;DHT22;44716;51.022;6.818;2023-08-24T04:13:19;26.20;52.70
58933;DHT22;44716;51.022;6.818;2023-08-24T04:15:44;26.20;52.80
58933;DHT22;44716;51.022;6.818;2023-08-24T04:18:10;26.20;52.80
58933;DHT22;44716;51.022;6.818;2023-08-24T04:20:36;26.20;52.80
58933;DHT22;44716;51.022;6.818;2023-08-24T04:23:01;26.20;52.80
58933;DHT22;44716;51.022;6.818;2023-08-24T04:25:27;26.20;52.90
58933;DHT22;44716;51.022;6.818;2023-08-24T04:27:53;26.20;52.90
58933;DHT22;44716;51.022;6.818;2023-08-24T04:30:18;26.10;53.00
58933;DHT22;44716;51.022;6.818;2023-08-24T04:32:43;26.10;53.10
58933;DHT22;44716;51.022;6.818;2023-08-24T04:35:09;26.20;53.10
58933;DHT22;44716;51.022;6.818;2023-08-24T04:37:35;26.20;53.20
58933;DHT22;44716;51.022;6.818;2023-08-24T04:40:01;26.10;53.40
58933;DHT22;44716;51.022;6.818;2023-08-24T04:42:26;26.20;53.50
58933;DHT22;44716;51.022;6.818;2023-08-24T04:44:52;26.20;53.50
58933;DHT22;44716;51.022;6.818;2023-08-24T04:47:17;26.20;53.60
58933;DHT22;44716;51.022;6.818;2023-08-24T04:49:43;26.20;53.70
58933;DHT22;44716;51.022;6.818;2023-08-24T04:52:08;26.20;53.70
58933;DHT22;44716;51.022;6.818;2023-08-24T04:54:34;26.20;53.70
58933;DHT22;44716;51.022;6.818;2023-08-24T04:56:59;26.20;53.80
58933;DHT22;44716;51.022;6.818;2023-08-24T04:59:25;26.20;53.70
58933;DHT22;44716;51.022;6.818;2023-08-24T05:01:50;26.20;53.80
58933;DHT22;44716;51.022;6.818;2023-08-24T05:04:16;26.30;53.70
58933;DHT22;44716;51.022;6.818;2023-08-24T05:06:41;26.30;53.80
58933;DHT22;44716;51.022;6.818;2023-08-24T05:09:07;26.30;53.80
58933;DHT22;44716;51.022;6.818;2023-08-24T05:11:33;26.30;53.80
58933;DHT22;44716;51.022;6.818;2023-08-24T05:13:59;26.30;53.80
58933;DHT22;44716;51.022;6.818;2023-08-24T05:16:24;26.30;53.90
58933;DHT22;44716;51.022;6.818;2023-08-24T05:18:50;26.30;53.90
58933;DHT22;44716;51.022;6.818;2023-08-24T05:21:15;26.30;53.90
58933;DHT22;44716;51.022;6.818;2023-08-24T05:23:41;26.30;54.00
58933;DHT22;44716;51.022;6.818;2023-08-24T05:26:06;26.30;53.90
58933;DHT22;44716;51.022;6.818;2023-08-24T05:28:32;26.30;54.00
58933;DHT22;44716;51.022;6.818;2023-08-24T05:30:58;26.30;54.10
58933;DHT22;44716;51.022;6.818;2023-08-24T05:33:25;26.40;54.00
58933;DHT22;44716;51.022;6.818;2023-08-24T05:35:51;26.30;54.00
58933;DHT22;44716;51.022;6.818;2023-08-24T05:38:17;26.30;54.00
58933;DHT22;44716;51.022;6.818;2023-08-24T05:40:43;26.30;54.10
58933;DHT22;44716;51.022;6.818;2023-08-24T05:43:09;26.30;54.10
58933;DHT22;44716;51.022;6.818;2023-08-24T05:45:35;26.30;54.10
58933;DHT22;44716;51.022;6.818;2023-08-24T05:48:00;26.30;53.90
58933;DHT22;44716;51.022;6.818;2023-08-24T05:50:26;26.30;54.00
58933;DHT22;44716;51.022;6.818;2023-08-24T05:52:51;26.30;54.40
58933;DHT22;44716;51.022;6.818;2023-08-24T05:55:17;26.30;54.20
58933;DHT22;44716;51.022;6.818;2023-08-24T05:57:43;26.30;54.20
58933;DHT22;44716;51.022;6.818;2023-08-24T06:00:08;26.30;54.10
58933;DHT22;44716;51.022;6.818;2023-08-24T06:02:35;26.30;54.10
58933;DHT22;44716;51.022;6.818;2023-08-24T06:05:01;26.30;54.10
58933;DHT22;44716;51.022;6.818;2023-08-24T06:07:26;26.30;54.00
58933;DHT22;44716;51.022;6.818;2023-08-24T06:09:52;26.30;54.00
58933;DHT22;44716;51.022;6.818;2023-08-24T06:12:17;26.30;54.30
58933;DHT22;44716;51.022;6.818;2023-08-24T06:14:43;26.30;54.30
58933;DHT22;44716;51.022;6.818;2023-08-24T06:17:08;26.30;54.10
58933;DHT22;44716;51.022;6.818;2023-08-24T06:19:33;26.30;54.20
58933;DHT22;44716;51.022;6.818;2023-08-24T06:21:59;26.30;54.10
58933;DHT22;44716;51.022;6.818;2023-08-24T06:24:24;26.40;54.10
58933;DHT22;44716;51.022;6.818;2023-08-24T06:26:50;26.50;54.00
58933;DHT22;44716;51.022;6.818;2023-08-24T06:29:15;26.50;53.90
58933;DHT22;44716;51.022;6.818;2023-08-24T06:31:41;26.50;53.90
58933;DHT22;44716;51.022;6.818;2023-08-24T06:34:07;26.50;54.00
58933;DHT22;44716;51.022;6.818;2023-08-24T06:36:33;26.50;54.00
58933;DHT22;44716;51.022;6.818;2023-08-24T06:38:58;26.50;54.00
58933;DHT22;44716;51.022;6.818;2023-08-24T06:41:24;26.40;54.10
58933;DHT22;44716;51.022;6.818;2023-08-24T06:43:49;26.40;54.60
58933;DHT22;44716;51.022;6.818;2023-08-24T06:46:15;26.40;54.00
58933;DHT22;44716;51.022;6.818;2023-08-24T06:48:41;26.40;54.00
58933;DHT22;44716;51.022;6.818;2023-08-24T06:51:09;26.40;54.00
58933;DHT22;44716;51.022;6.818;2023-08-24T06:53:35;26.40;54.00
58933;DHT22;44716;51.022;6.818;2023-08-24T06:56:00;26.50;54.10
58933;DHT22;44716;51.022;6.818;2023-08-24T06:58:26;26.50;54.00
58933;DHT22;44716;51.022;6.818;2023-08-24T07:00:52;26.50;54.00
58933;DHT22;44716;51.022;6.818;2023-08-24T07:03:18;26.50;54.00
58933;DHT22;44716;51.022;6.818;2023-08-24T07:05:44;26.50;53.90
58933;DHT22;44716;51.022;6.818;2023-08-24T07:08:10;26.50;53.90
58933;DHT22;44716;51.022;6.818;2023-08-24T07:10:35;26.50;53.90
58933;DHT22;44716;51.022;6.818;2023-08-24T07:13:01;26.50;53.90
58933;DHT22;44716;51.022;6.818;2023-08-24T07:15:26;26.50;53.80
58933;DHT22;44716;51.022;6.818;2023-08-24T07:17:52;26.50;53.80
58933;DHT22;44716;51.022;6.818;2023-08-24T07:20:17;26.50;53.80
58933;DHT22;44716;51.022;6.818;2023-08-24T07:22:43;26.60;53.80
58933;DHT22;44716;51.022;6.818;2023-08-24T07:25:08;26.60;53.80
58933;DHT22;44716;51.022;6.818;2023-08-24T07:27:35;26.60;53.80
58933;DHT22;44716;51.022;6.818;2023-08-24T07:30:01;26.60;53.80
58933;DHT22;44716;51.022;6.818;2023-08-24T07:32:31;26.60;53.70
58933;DHT22;44716;51.022;6.818;2023-08-24T07:34:56;26.60;53.60
58933;DHT22;44716;51.022;6.818;2023-08-24T07:37:25;26.60;53.60
58933;DHT22;44716;51.022;6.818;2023-08-24T07:39:50;26.60;53.60
58933;DHT22;44716;51.022;6.818;2023-08-24T07:42:16;26.60;53.50
58933;DHT22;44716;51.022;6.818;2023-08-24T07:44:41;26.60;53.40
58933;DHT22;44716;51.022;6.818;2023-08-24T07:47:07;26.60;53.50
58933;DHT22;44716;51.022;6.818;2023-08-24T07:49:32;26.70;53.40
58933;DHT22;44716;51.022;6.818;2023-08-24T07:51:58;26.60;53.40
58933;DHT22;44716;51.022;6.818;2023-08-24T07:54:23;26.70;53.40
58933;DHT22;44716;51.022;6.818;2023-08-24T07:56:50;26.70;53.40
58933;DHT22;44716;51.022;6.818;2023-08-24T07:59:15;26.70;53.40
58933;DHT22;44716;51.022;6.818;2023-08-24T08:01:41;26.60;53.40
58933;DHT22;44716;51.022;6.818;2023-08-24T08:04:06;26.60;53.50
58933;DHT22;44716;51.022;6.818;2023-08-24T08:06:32;26.60;53.40
58933;DHT22;44716;51.022;6.818;2023-08-24T08:08:57;26.60;53.40
58933;DHT22;44716;51.022;6.818;2023-08-24T08:11:23;26.70;53.50
58933;DHT22;44716;51.022;6.818;2023-08-24T08:13:49;26.60;53.40
58933;DHT22;44716;51.022;6.818;2023-08-24T08:16:14;26.70;53.40
58933;DHT22;44716;51.022;6.818;2023-08-24T08:18:40;26.60;53.40
58933;DHT22;44716;51.022;6.818;2023-08-24T08:21:17;26.70;53.40
58933;DHT22;44716;51.022;6.818;2023-08-24T08:23:43;26.70;53.40
58933;DHT22;44716;51.022;6.818;2023-08-24T08:26:10;26.70;53.40
58933;DHT22;44716;51.022;6.818;2023-08-24T08:28:36;26.70;53.40
58933;DHT22;44716;51.022;6.818;2023-08-24T08:31:01;26.70;53.30
58933;DHT22;44716;51.022;6.818;2023-08-24T08:33:28;26.70;53.30
58933;DHT22;44716;51.022;6.818;2023-08-24T08:35:53;26.80;53.30
58933;DHT22;44716;51.022;6.818;2023-08-24T08:38:19;26.80;53.30
58933;DHT22;44716;51.022;6.818;2023-08-24T08:40:47;26.80;53.20
58933;DHT22;44716;51.022;6.818;2023-08-24T08:43:14;26.70;53.30
58933;DHT22;44716;51.022;6.818;2023-08-24T08:45:40;26.80;53.30
58933;DHT22;44716;51.022;6.818;2023-08-24T08:48:05;26.80;53.30
58933;DHT22;44716;51.022;6.818;2023-08-24T08:50:32;26.80;53.30
58933;DHT22;44716;51.022;6.818;2023-08-24T08:52:58;26.80;53.20
58933;DHT22;44716;51.022;6.818;2023-08-24T08:55:24;26.80;53.20
58933;DHT22;44716;51.022;6.818;2023-08-24T08:57:50;26.80;53.20
58933;DHT22;44716;51.022;6.818;2023-08-24T09:00:17;26.80;53.10
58933;DHT22;44716;51.022;6.818;2023-08-24T09:02:43;26.80;53.20
58933;DHT22;44716;51.022;6.818;2023-08-24T09:05:14;26.80;53.20
58933;DHT22;44716;51.022;6.818;2023-08-24T09:07:40;26.80;53.20
58933;DHT22;44716;51.022;6.818;2023-08-24T09:10:05;26.80;53.20
58933;DHT22;44716;51.022;6.818;2023-08-24T09:12:33;26.80;53.20
58933;DHT22;44716;51.022;6.818;2023-08-24T09:14:58;26.80;53.20
58933;DHT22;44716;51.022;6.818;2023-08-24T09:17:24;26.80;53.20
58933;DHT22;44716;51.022;6.818;2023-08-24T09:19:50;26.80;53.20
58933;DHT22;44716;51.022;6.818;2023-08-24T09:22:17;26.80;53.20
58933;DHT22;44716;51.022;6.818;2023-08-24T09:24:42;26.80;53.20
58933;DHT22;44716;51.022;6.818;2023-08-24T09:27:16;26.80;53.20
58933;DHT22;44716;51.022;6.818;2023-08-24T09:29:42;26.80;53.20
58933;DHT22;44716;51.022;6.818;2023-08-24T09:32:08;26.80;53.20
58933;DHT22;44716;51.022;6.818;2023-08-24T09:34:33;26.80;53.20
58933;DHT22;44716;51.022;6.818;2023-08-24T09:36:59;26.80;53.20
58933;DHT22;44716;51.022;6.818;2023-08-24T09:39:24;26.90;53.20
58933;DHT22;44716;51.022;6.818;2023-08-24T09:41:50;26.90;53.20
58933;DHT22;44716;51.022;6.818;2023-08-24T09:44:19;26.90;53.10
58933;DHT22;44716;51.022;6.818;2023-08-24T09:46:44;26.90;53.10
58933;DHT22;44716;51.022;6.818;2023-08-24T09:49:10;27.00;53.10
58933;DHT22;44716;51.022;6.818;2023-08-24T09:51:37;27.00;53.10
58933;DHT22;44716;51.022;6.818;2023-08-24T09:54:06;26.90;53.00
58933;DHT22;44716;51.022;6.818;2023-08-24T09:56:37;27.00;53.10
58933;DHT22;44716;51.022;6.818;2023-08-24T09:59:16;26.90;53.00
58933;DHT22;44716;51.022;6.818;2023-08-24T10:01:48;26.90;53.00
58933;DHT22;44716;51.022;6.818;2023-08-24T10:04:14;27.00;53.00
58933;DHT22;44716;51.022;6.818;2023-08-24T10:06:40;27.00;53.00
58933;DHT22;44716;51.022;6.818;2023-08-24T10:09:14;27.00;53.00
58933;DHT22;44716;51.022;6.818;2023-08-24T10:11:42;27.00;53.00
58933;DHT22;44716;51.022;6.818;2023-08-24T10:14:24;27.00;53.00
58933;DHT22;44716;51.022;6.818;2023-08-24T10:16:50;27.00;53.00
58933;DHT22;44716;51.022;6.818;2023-08-24T10:19:17;27.00;53.00
58933;DHT22;44716;51.022;6.818;2023-08-24T10:21:43;27.10;53.10
58933;DHT22;44716;51.022;6.818;2023-08-24T10:24:09;27.00;53.00
58933;DHT22;44716;51.022;6.818;2023-08-24T10:26:36;27.00;53.10
58933;DHT22;44716;51.022;6.818;2023-08-24T10:29:03;27.00;53.10
58933;DHT22;44716;51.022;6.818;2023-08-24T10:31:29;27.00;53.10
58933;DHT22;44716;51.022;6.818;2023-08-24T10:33:55;27.00;53.10
58933;DHT22;44716;51.022;6.818;2023-08-24T10:36:21;27.00;53.10
58933;DHT22;44716;51.022;6.818;2023-08-24T10:38:47;27.00;53.10
58933;DHT22;44716;51.022;6.818;2023-08-24T10:41:13;27.10;53.10
58933;DHT22;44716;51.022;6.818;2023-08-24T10:43:48;27.10;53.70
58933;DHT22;44716;51.022;6.818;2023-08-24T10:46:14;27.00;53.10
58933;DHT22;44716;51.022;6.818;2023-08-24T10:53:38;27.10;53.10
58933;DHT22;44716;51.022;6.818;2023-08-24T10:56:14;27.10;53.00
58933;DHT22;44716;51.022;6.818;2023-08-24T10:58:40;27.10;53.00
58933;DHT22;44716;51.022;6.818;2023-08-24T11:01:06;27.10;53.00
58933;DHT22;44716;51.022;6.818;2023-08-24T11:03:32;27.10;53.00
58933;DHT22;44716;51.022;6.818;2023-08-24T11:06:00;27.10;53.60
58933;DHT22;44716;51.022;6.818;2023-08-24T11:08:45;27.10;53.00
58933;DHT22;44716;51.022;6.818;2023-08-24T11:16:40;27.20;53.10
58933;DHT22;44716;51.022;6.818;2023-08-24T11:19:06;27.20;53.00
58933;DHT22;44716;51.022;6.818;2023-08-24T11:21:32;27.20;53.00
58933;DHT22;44716;51.022;6.818;2023-08-24T11:23:59;27.20;53.10
58933;DHT22;44716;51.022;6.818;2023-08-24T11:26:25;27.20;53.00
58933;DHT22;44716;51.022;6.818;2023-08-24T11:28:52;27.20;53.10
58933;DHT22;44716;51.022;6.818;2023-08-24T11:31:18;27.10;53.00
58933;DHT22;44716;51.022;6.818;2023-08-24T11:33:44;27.20;53.10
58933;DHT22;44716;51.022;6.818;2023-08-24T11:36:09;27.20;53.10
58933;DHT22;44716;51.022;6.818;2023-08-24T11:38:35;27.20;53.10
58933;DHT22;44716;51.022;6.818;2023-08-24T11:43:38;27.20;53.10
58933;DHT22;44716;51.022;6.818;2023-08-24T11:46:03;27.10;53.10
58933;DHT22;44716;51.022;6.818;2023-08-24T11:48:29;27.10;53.10
58933;DHT22;44716;51.022;6.818;2023-08-24T11:50:57;27.10;53.10
58933;DHT22;44716;51.022;6.818;2023-08-24T11:53:23;27.20;53.20
58933;DHT22;44716;51.022;6.818;2023-08-24T11:55:52;27.20;53.20
58933;DHT22;44716;51.022;6.818;2023-08-24T11:58:17;27.20;53.10
58933;DHT22;44716;51.022;6.818;2023-08-24T12:00:43;27.20;53.10
58933;DHT22;44716;51.022;6.818;2023-08-24T12:03:10;27.20;53.00
58933;DHT22;44716;51.022;6.818;2023-08-24T12:05:35;27.30;53.00
58933;DHT22;44716;51.022;6.818;2023-08-24T12:08:01;27.20;53.10
58933;DHT22;44716;51.022;6.818;2023-08-24T12:10:26;27.20;53.00
58933;DHT22;44716;51.022;6.818;2023-08-24T12:13:00;27.30;53.00
58933;DHT22;44716;51.022;6.818;2023-08-24T12:15:27;27.30;53.00
58933;DHT22;44716;51.022;6.818;2023-08-24T12:17:53;27.30;52.90
58933;DHT22;44716;51.022;6.818;2023-08-24T12:20:22;27.30;52.90
58933;DHT22;44716;51.022;6.818;2023-08-24T12:22:51;27.30;52.90
58933;DHT22;44716;51.022;6.818;2023-08-24T12:25:17;27.30;52.90
58933;DHT22;44716;51.022;6.818;2023-08-24T12:27:43;27.30;52.90
58933;DHT22;44716;51.022;6.818;2023-08-24T12:30:09;27.30;52.90
58933;DHT22;44716;51.022;6.818;2023-08-24T12:32:42;27.30;52.90
58933;DHT22;44716;51.022;6.818;2023-08-24T12:35:09;27.30;52.90
58933;DHT22;44716;51.022;6.818;2023-08-24T12:37:35;27.30;52.80
58933;DHT22;44716;51.022;6.818;2023-08-24T12:40:01;27.30;52.90
58933;DHT22;44716;51.022;6.818;2023-08-24T12:42:27;27.30;52.90
58933;DHT22;44716;51.022;6.818;2023-08-24T12:44:53;27.40;52.90
58933;DHT22;44716;51.022;6.818;2023-08-24T12:47:18;27.30;52.80
58933;DHT22;44716;51.022;6.818;2023-08-24T12:49:44;27.40;52.90
58933;DHT22;44716;51.022;6.818;2023-08-24T12:52:09;27.30;52.80
58933;DHT22;44716;51.022;6.818;2023-08-24T12:54:35;27.30;52.90
58933;DHT22;44716;51.022;6.818;2023-08-24T12:57:00;27.30;52.90
58933;DHT22;44716;51.022;6.818;2023-08-24T12:59:26;27.40;53.00
58933;DHT22;44716;51.022;6.818;2023-08-24T13:01:51;27.40;52.90
58933;DHT22;44716;51.022;6.818;2023-08-24T13:04:17;27.40;52.90
58933;DHT22;44716;51.022;6.818;2023-08-24T13:06:42;27.40;52.90
58933;DHT22;44716;51.022;6.818;2023-08-24T13:09:08;27.40;52.90
58933;DHT22;44716;51.022;6.818;2023-08-24T13:11:34;27.40;53.00
58933;DHT22;44716;51.022;6.818;2023-08-24T13:13:59;27.30;52.90
58933;DHT22;44716;51.022;6.818;2023-08-24T13:16:25;27.40;53.00
58933;DHT22;44716;51.022;6.818;2023-08-24T13:18:53;27.40;53.00
58933;DHT22;44716;51.022;6.818;2023-08-24T13:21:18;27.40;53.00
58933;DHT22;44716;51.022;6.818;2023-08-24T13:23:44;27.40;53.00
58933;DHT22;44716;51.022;6.818;2023-08-24T13:26:18;27.40;53.00
58933;DHT22;44716;51.022;6.818;2023-08-24T13:28:45;27.40;53.00
58933;DHT22;44716;51.022;6.818;2023-08-24T13:31:11;27.40;53.00
58933;DHT22;44716;51.022;6.818;2023-08-24T13:33:36;27.40;53.00
58933;DHT22;44716;51.022;6.818;2023-08-24T13:36:02;27.40;52.90
58933;DHT22;44716;51.022;6.818;2023-08-24T13:38:27;27.40;52.90
58933;DHT22;44716;51.022;6.818;2023-08-24T13:40:53;27.40;52.90
58933;DHT22;44716;51.022;6.818;2023-08-24T13:43:18;27.40;52.90
58933;DHT22;44716;51.022;6.818;2023-08-24T13:45:45;27.40;52.90
58933;DHT22;44716;51.022;6.818;2023-08-24T13:48:10;27.40;53.00
58933;DHT22;44716;51.022;6.818;2023-08-24T13:50:36;27.40;53.00
58933;DHT22;44716;51.022;6.818;2023-08-24T13:53:01;27.40;53.00
58933;DHT22;44716;51.022;6.818;2023-08-24T13:55:27;27.40;52.90
58933;DHT22;44716;51.022;6.818;2023-08-24T13:57:52;27.40;52.90
58933;DHT22;44716;51.022;6.818;2023-08-24T14:00:18;27.40;53.00
58933;DHT22;44716;51.022;6.818;2023-08-24T14:02:43;27.40;53.00
58933;DHT22;44716;51.022;6.818;2023-08-24T14:05:10;27.40;53.00
58933;DHT22;44716;51.022;6.818;2023-08-24T14:07:36;27.40;53.00
58933;DHT22;44716;51.022;6.818;2023-08-24T14:10:02;27.40;53.00
58933;DHT22;44716;51.022;6.818;2023-08-24T14:12:28;27.40;53.00
58933;DHT22;44716;51.022;6.818;2023-08-24T14:14:54;27.40;53.00
58933;DHT22;44716;51.022;6.818;2023-08-24T14:17:20;27.40;53.00
58933;DHT22;44716;51.022;6.818;2023-08-24T14:19:45;27.40;53.10
58933;DHT22;44716;51.022;6.818;2023-08-24T14:22:11;27.40;53.00
58933;DHT22;44716;51.022;6.818;2023-08-24T14:24:36;27.40;53.10
58933;DHT22;44716;51.022;6.818;2023-08-24T14:27:02;27.40;53.10
58933;DHT22;44716;51.022;6.818;2023-08-24T14:29:27;27.40;53.10
58933;DHT22;44716;51.022;6.818;2023-08-24T14:31:53;27.40;53.10
58933;DHT22;44716;51.022;6.818;2023-08-24T14:34:18;27.40;53.10
58933;DHT22;44716;51.022;6.818;2023-08-24T14:36:44;27.40;53.00
58933;DHT22;44716;51.022;6.818;2023-08-24T14:39:09;27.40;53.10
58933;DHT22;44716;51.022;6.818;2023-08-24T14:41:35;27.40;53.10
58933;DHT22;44716;51.022;6.818;2023-08-24T14:44:01;27.40;53.00
58933;DHT22;44716;51.022;6.818;2023-08-24T14:46:26;27.40;53.00
58933;DHT22;44716;51.022;6.818;2023-08-24T14:48:52;27.50;53.00
58933;DHT22;44716;51.022;6.818;2023-08-24T14:51:17;27.50;53.00
58933;DHT22;44716;51.022;6.818;2023-08-24T14:53:43;27.50;53.00
58933;DHT22;44716;51.022;6.818;2023-08-24T14:56:08;27.50;53.00
58933;DHT22;44716;51.022;6.818;2023-08-24T14:58:35;27.50;53.00
58933;DHT22;44716;51.022;6.818;2023-08-24T15:01:00;27.50;52.90
58933;DHT22;44716;51.022;6.818;2023-08-24T15:03:26;27.50;53.00
58933;DHT22;44716;51.022;6.818;2023-08-24T15:06:01;27.50;52.90
58933;DHT22;44716;51.022;6.818;2023-08-24T15:08:29;27.50;52.90
58933;DHT22;44716;51.022;6.818;2023-08-24T15:10:56;27.50;52.90
58933;DHT22;44716;51.022;6.818;2023-08-24T15:13:22;27.50;52.90
58933;DHT22;44716;51.022;6.818;2023-08-24T15:15:47;27.50;52.90
58933;DHT22;44716;51.022;6.818;2023-08-24T15:18:13;27.50;52.90
58933;DHT22;44716;51.022;6.818;2023-08-24T15:20:39;27.50;52.90
58933;DHT22;44716;51.022;6.818;2023-08-24T15:23:04;27.50;52.90
58933;DHT22;44716;51.022;6.818;2023-08-24T15:25:32;27.50;53.00
58933;DHT22;44716;51.022;6.818;2023-08-24T15:27:58;27.50;53.00
58933;DHT22;44716;51.022;6.818;2023-08-24T15:30:23;27.40;53.00
58933;DHT22;44716;51.022;6.818;2023-08-24T15:32:49;27.50;53.10
58933;DHT22;44716;51.022;6.818;2023-08-24T15:35:14;27.40;53.00
58933;DHT22;44716;51.022;6.818;2023-08-24T15:37:41;27.40;53.60
58933;DHT22;44716;51.022;6.818;2023-08-24T15:40:06;27.40;53.30
58933;DHT22;44716;51.022;6.818;2023-08-24T15:42:33;27.50;53.30